Terminal Aerodrome Forecast
Issued by NWS Indianapolis, IN

Current Version | Previous Version | Text Only | Print | Product List | Glossary On
Versions: 1 2 3 4 5 6 7 8 9 10 11 12 13 14 15 16 17 18 19 20 21 22 23 24 25 26 27 28 29 30
000
FTUS43 KIND 232000 AAA
TAFIND
TAF AMD
KIND 232025Z 2320/2424 12013KT 4SM -SHRA BR SCT008 OVC020
     FM232200 14012KT 3SM -SHRA BR OVC007
     FM240200 19015G22KT 3SM -SHRA BR OVC006
     FM241300 25020G32KT 5SM -SHRA OVC015
     FM241600 24025G35KT P6SM OVC030=

USA.gov is the U.S. government's official web portal to all federal, state and local government web resources and services.